createdAt,value
2018-12-20T00:00:46.546Z,0
2018-12-20T00:01:46.361Z,0
2018-12-20T00:02:46.579Z,0
2018-12-20T00:03:46.506Z,0
2018-12-20T00:04:46.662Z,0
2018-12-20T00:05:46.587Z,0
2018-12-20T00:06:46.460Z,0
2018-12-20T00:07:46.546Z,0
2018-12-20T00:08:46.691Z,0
2018-12-20T00:10:01.078Z,0
2018-12-20T00:10:46.492Z,0
2018-12-20T00:11:46.569Z,0
2018-12-20T00:12:46.765Z,0
2018-12-20T00:13:46.716Z,0
2018-12-20T00:14:46.615Z,0
2018-12-20T00:15:46.705Z,0
2018-12-20T00:17:01.199Z,0
2018-12-20T00:18:01.217Z,0
2018-12-20T00:18:46.786Z,0
2018-12-20T00:19:46.633Z,0
2018-12-20T00:20:46.788Z,0
2018-12-20T00:21:46.651Z,0
2018-12-20T00:23:01.444Z,0
2018-12-20T00:23:46.664Z,0
2018-12-20T00:25:01.352Z,0
2018-12-20T00:26:01.564Z,0
2018-12-20T00:26:46.809Z,0
2018-12-20T00:27:46.912Z,0
2018-12-20T00:28:46.822Z,0
2018-12-20T00:29:46.769Z,0
2018-12-20T00:30:47.053Z,0
2018-12-20T00:31:46.786Z,0
2018-12-20T00:32:46.842Z,0
2018-12-20T00:33:46.898Z,0
2018-12-20T00:34:47.057Z,0
2018-12-20T00:35:46.838Z,0
2018-12-20T00:37:47.063Z,0
2018-12-20T00:38:47.093Z,0
2018-12-20T00:39:47.077Z,0
2018-12-20T00:40:47.113Z,0
2018-12-20T00:42:01.597Z,0
2018-12-20T00:42:46.976Z,0
2018-12-20T00:44:01.703Z,0
2018-12-20T00:44:46.964Z,0
2018-12-20T00:45:47.140Z,0
2018-12-20T00:46:47.158Z,0
2018-12-20T00:47:47.137Z,0
2018-12-20T00:48:47.030Z,0
2018-12-20T00:49:47.092Z,0
2018-12-20T00:50:47.038Z,0
2018-12-20T00:52:01.758Z,0
2018-12-20T00:52:47.185Z,0
2018-12-20T00:53:47.181Z,0
2018-12-20T00:54:47.438Z,0
2018-12-20T00:55:47.260Z,0
2018-12-20T00:59:01.896Z,0
2018-12-20T00:59:47.196Z,0
2018-12-20T01:00:47.365Z,0
2018-12-20T01:02:01.958Z,0
2018-12-20T01:02:55.024Z,0
2018-12-20T01:04:47.239Z,0
2018-12-20T01:05:47.228Z,0
2018-12-20T01:07:01.907Z,0
2018-12-20T01:08:47.426Z,0
2018-12-20T01:10:02.165Z,0
2018-12-20T01:10:47.607Z,0
2018-12-20T01:11:47.377Z,0
2018-12-20T01:12:47.648Z,0
2018-12-20T01:13:47.461Z,0
2018-12-20T01:15:07.394Z,0
2018-12-20T01:15:47.297Z,0
2018-12-20T01:16:47.455Z,0
2018-12-20T01:17:47.229Z,0
2018-12-20T01:19:02.078Z,0
2018-12-20T01:20:02.488Z,0
2018-12-20T01:21:02.096Z,0
2018-12-20T01:22:02.179Z,0
2018-12-20T01:23:02.191Z,0
2018-12-20T01:23:47.611Z,0
2018-12-20T01:24:47.621Z,0
2018-12-20T01:25:47.919Z,0
2018-12-20T01:26:47.692Z,0
2018-12-20T01:27:47.701Z,0
2018-12-20T01:29:02.582Z,0
2018-12-20T01:29:47.611Z,0
2018-12-20T01:30:48.161Z,0
2018-12-20T01:31:47.640Z,0
2018-12-20T01:32:47.670Z,0
2018-12-20T01:34:02.303Z,0
2018-12-20T01:35:02.463Z,0
2018-12-20T01:35:47.910Z,0
2018-12-20T01:36:47.848Z,0
2018-12-20T01:37:47.690Z,0
2018-12-20T01:38:48.342Z,0
2018-12-20T01:39:48.028Z,0
2018-12-20T01:40:47.761Z,0
2018-12-20T01:41:48.109Z,0
2018-12-20T01:42:48.067Z,0
2018-12-20T01:43:48.038Z,0
2018-12-20T01:45:02.733Z,0
2018-12-20T01:45:48.095Z,0
2018-12-20T01:46:48.115Z,0
2018-12-20T01:47:47.940Z,0
2018-12-20T01:48:48.011Z,0
2018-12-20T01:49:48.337Z,0
2018-12-20T01:50:48.196Z,0
2018-12-20T01:51:48.113Z,0
2018-12-20T01:53:02.765Z,0
2018-12-20T01:53:48.187Z,0
2018-12-20T01:54:48.249Z,0
2018-12-20T01:55:48.253Z,0
2018-12-20T01:56:47.961Z,0
2018-12-20T01:57:47.968Z,0
2018-12-20T01:58:48.133Z,0
2018-12-20T01:59:48.227Z,0
2018-12-20T02:01:02.963Z,0
2018-12-20T02:01:48.218Z,0
2018-12-20T02:02:48.190Z,0
2018-12-20T02:03:48.287Z,0
2018-12-20T02:04:48.147Z,0
2018-12-20T02:06:48.147Z,0
2018-12-20T02:08:48.185Z,0
2018-12-20T02:09:48.338Z,0
2018-12-20T02:10:48.555Z,0
2018-12-20T02:11:48.231Z,0
2018-12-20T02:12:48.544Z,0
2018-12-20T02:13:48.436Z,0
2018-12-20T02:14:48.334Z,0
2018-12-20T02:15:48.609Z,0
2018-12-20T02:17:17.668Z,0
2018-12-20T02:18:03.305Z,0
2018-12-20T02:19:48.394Z,0
2018-12-20T02:20:48.527Z,0
2018-12-20T02:22:48.596Z,0
2018-12-20T02:23:48.724Z,0
2018-12-20T02:24:48.660Z,0
2018-12-20T02:25:48.564Z,0
2018-12-20T02:27:48.938Z,0
2018-12-20T02:28:48.667Z,0
2018-12-20T02:30:03.128Z,0
2018-12-20T02:30:49.411Z,0
2018-12-20T02:32:03.277Z,0
2018-12-20T02:32:48.649Z,0
2018-12-20T02:33:48.918Z,0
2018-12-20T02:34:48.653Z,0
2018-12-20T02:35:49.345Z,0
2018-12-20T02:36:48.845Z,0
2018-12-20T02:37:48.982Z,0
2018-12-20T02:38:48.847Z,0
2018-12-20T02:39:48.756Z,0
2018-12-20T02:41:03.441Z,0
2018-12-20T02:41:48.965Z,0
2018-12-20T02:42:48.744Z,0
2018-12-20T02:43:49.178Z,0
2018-12-20T02:44:49.052Z,0
2018-12-20T02:46:49.191Z,0
2018-12-20T02:47:49.070Z,0
2018-12-20T02:48:49.103Z,0
2018-12-20T02:49:49.218Z,0
2018-12-20T02:50:49.026Z,0
2018-12-20T02:51:48.793Z,0
2018-12-20T02:52:49.227Z,0
2018-12-20T02:53:48.917Z,0
2018-12-20T02:55:03.720Z,0
2018-12-20T02:56:03.824Z,0
2018-12-20T02:57:03.723Z,0
2018-12-20T02:57:49.512Z,0
2018-12-20T02:58:49.316Z,0
2018-12-20T02:59:49.428Z,0
2018-12-20T03:00:49.026Z,0
2018-12-20T03:01:49.464Z,0
2018-12-20T03:02:48.838Z,0
2018-12-20T03:04:03.961Z,0
2018-12-20T03:05:49.566Z,0
2018-12-20T03:06:49.222Z,0
2018-12-20T03:07:49.279Z,0
2018-12-20T03:08:49.138Z,0
2018-12-20T03:09:49.590Z,0
2018-12-20T03:10:49.453Z,0
2018-12-20T03:12:49.353Z,0
2018-12-20T03:13:49.217Z,0
2018-12-20T03:14:49.249Z,0
2018-12-20T03:16:04.060Z,0
2018-12-20T03:16:49.341Z,0
2018-12-20T03:17:49.409Z,0
2018-12-20T03:18:49.362Z,0
2018-12-20T03:20:03.991Z,0
2018-12-20T03:20:49.611Z,0
2018-12-20T03:21:49.693Z,0
2018-12-20T03:23:04.010Z,0
2018-12-20T03:23:49.273Z,0
2018-12-20T03:25:04.071Z,0
2018-12-20T03:25:49.478Z,0
2018-12-20T03:26:49.462Z,0
2018-12-20T03:27:49.565Z,0
2018-12-20T03:28:49.296Z,0
2018-12-20T03:29:50.005Z,0
2018-12-20T03:30:49.635Z,0
2018-12-20T03:31:49.619Z,0
2018-12-20T03:32:49.637Z,0
2018-12-20T03:33:50.408Z,0
2018-12-20T03:34:49.484Z,0
2018-12-20T03:36:04.275Z,0
2018-12-20T03:36:49.770Z,0
2018-12-20T03:37:49.844Z,0
2018-12-20T03:38:49.859Z,0
2018-12-20T03:39:49.425Z,0
2018-12-20T03:40:49.845Z,0
2018-12-20T03:41:49.630Z,0
2018-12-20T03:42:49.897Z,0
2018-12-20T03:43:49.999Z,0
2018-12-20T03:44:49.926Z,0
2018-12-20T03:45:50.136Z,0
2018-12-20T03:46:49.562Z,0
2018-12-20T03:47:50.243Z,0
2018-12-20T03:48:49.782Z,0
2018-12-20T03:49:50.068Z,0
2018-12-20T03:50:50.206Z,0
2018-12-20T03:52:04.697Z,0
2018-12-20T03:52:50.262Z,0
2018-12-20T03:53:49.801Z,0
2018-12-20T03:54:50.128Z,0
2018-12-20T03:55:50.148Z,0
2018-12-20T03:56:49.949Z,0
2018-12-20T03:57:49.820Z,0
2018-12-20T03:58:50.199Z,0
2018-12-20T04:00:04.697Z,0
2018-12-20T04:00:49.922Z,0
2018-12-20T04:01:50.049Z,0
2018-12-20T04:02:49.916Z,0
2018-12-20T04:03:49.924Z,0
2018-12-20T04:04:49.819Z,0
2018-12-20T04:05:50.027Z,0
2018-12-20T04:07:04.507Z,0
2018-12-20T04:07:50.116Z,0
2018-12-20T04:08:50.080Z,0
2018-12-20T04:09:50.333Z,0
2018-12-20T04:10:50.481Z,0
2018-12-20T04:11:49.994Z,0
2018-12-20T04:12:50.475Z,0
2018-12-20T04:13:50.515Z,0
2018-12-20T04:14:50.419Z,0
2018-12-20T04:15:50.732Z,0
2018-12-20T04:16:50.421Z,0
2018-12-20T04:18:49.849Z,0
2018-12-20T04:19:50.003Z,0
2018-12-20T04:20:50.417Z,0
2018-12-20T04:21:50.465Z,0
2018-12-20T04:22:50.503Z,0
2018-12-20T04:23:50.759Z,0
2018-12-20T04:24:50.884Z,0
2018-12-20T04:26:05.160Z,0
2018-12-20T04:26:50.234Z,0
2018-12-20T04:27:50.942Z,0
2018-12-20T04:29:04.979Z,0
2018-12-20T04:29:50.645Z,0
2018-12-20T04:30:50.300Z,0
2018-12-20T04:31:50.527Z,0
2018-12-20T04:32:50.468Z,0
2018-12-20T04:33:50.697Z,0
2018-12-20T04:34:50.501Z,0
2018-12-20T04:36:05.387Z,0
2018-12-20T04:36:50.601Z,0
2018-12-20T04:37:50.548Z,0
2018-12-20T04:39:04.925Z,0
2018-12-20T04:39:50.978Z,0
2018-12-20T04:40:50.421Z,0
2018-12-20T04:42:50.851Z,0
2018-12-20T04:43:50.338Z,0
2018-12-20T04:44:50.820Z,0
2018-12-20T04:45:54.464Z,0
2018-12-20T04:46:50.767Z,0
2018-12-20T04:47:50.793Z,0
2018-12-20T04:48:50.787Z,0
2018-12-20T04:49:50.840Z,0
2018-12-20T04:50:50.915Z,0
2018-12-20T04:51:50.663Z,0
2018-12-20T04:52:50.610Z,0
2018-12-20T04:53:50.658Z,0
2018-12-20T04:55:05.270Z,0
2018-12-20T04:55:50.659Z,0
2018-12-20T04:56:50.806Z,0
2018-12-20T04:58:05.440Z,0
2018-12-20T04:58:50.955Z,0
2018-12-20T05:00:05.242Z,0
2018-12-20T05:00:51.047Z,0
2018-12-20T05:01:50.784Z,0
2018-12-20T05:02:50.616Z,0
2018-12-20T05:03:50.857Z,0
2018-12-20T05:04:50.681Z,0
2018-12-20T05:05:51.553Z,0
2018-12-20T05:07:05.432Z,0
2018-12-20T05:08:05.620Z,0
2018-12-20T05:08:50.954Z,0
2018-12-20T05:09:51.153Z,0
2018-12-20T05:11:05.536Z,0
2018-12-20T05:11:51.330Z,0
2018-12-20T05:12:51.064Z,0
2018-12-20T05:14:05.532Z,0
2018-12-20T05:14:50.979Z,0
2018-12-20T05:15:58.892Z,0
2018-12-20T05:16:50.894Z,0
2018-12-20T05:17:50.899Z,0
2018-12-20T05:18:50.853Z,0
2018-12-20T05:20:51.016Z,0
2018-12-20T05:21:50.933Z,0
2018-12-20T05:22:51.216Z,0
2018-12-20T05:23:51.502Z,0
2018-12-20T05:24:50.982Z,0
2018-12-20T05:25:51.234Z,0
2018-12-20T05:27:05.608Z,0
2018-12-20T05:27:51.042Z,0
2018-12-20T05:28:51.365Z,0
2018-12-20T05:30:05.848Z,0
2018-12-20T05:30:51.385Z,0
2018-12-20T05:31:51.027Z,0
2018-12-20T05:32:51.678Z,0
2018-12-20T05:33:51.264Z,0
2018-12-20T05:34:51.465Z,0
2018-12-20T05:35:51.143Z,0
2018-12-20T05:37:06.223Z,0
2018-12-20T05:37:51.263Z,0
2018-12-20T05:38:51.421Z,0
2018-12-20T05:39:51.465Z,0
2018-12-20T05:40:51.259Z,0
2018-12-20T05:42:06.036Z,0
2018-12-20T05:43:06.407Z,0
2018-12-20T05:43:51.722Z,0
2018-12-20T05:44:54.936Z,0
2018-12-20T05:45:51.804Z,0
2018-12-20T05:46:51.231Z,0
2018-12-20T05:47:51.588Z,0
2018-12-20T05:49:06.193Z,0
2018-12-20T05:50:06.221Z,0
2018-12-20T05:50:51.647Z,0
2018-12-20T05:52:51.313Z,0
2018-12-20T05:53:51.746Z,0
2018-12-20T05:54:51.350Z,0
2018-12-20T05:55:51.601Z,0
2018-12-20T05:56:51.729Z,0
2018-12-20T05:57:51.649Z,0
2018-12-20T05:58:52.243Z,0
2018-12-20T05:59:51.543Z,0
2018-12-20T06:00:51.635Z,0
2018-12-20T06:02:06.614Z,0
2018-12-20T06:02:52.091Z,0
2018-12-20T06:03:52.095Z,0
2018-12-20T06:04:51.814Z,0
2018-12-20T06:05:52.211Z,0
2018-12-20T06:07:06.503Z,0
2018-12-20T06:07:51.991Z,0
2018-12-20T06:08:51.764Z,0
2018-12-20T06:09:51.876Z,0
2018-12-20T06:10:51.570Z,0
2018-12-20T06:11:51.857Z,0
2018-12-20T06:12:52.121Z,0
2018-12-20T06:14:06.484Z,0
2018-12-20T06:14:51.415Z,0
2018-12-20T06:15:52.227Z,0
2018-12-20T06:16:51.930Z,0
2018-12-20T06:17:51.876Z,0
2018-12-20T06:18:52.153Z,0
2018-12-20T06:20:06.615Z,0
2018-12-20T06:20:52.071Z,0
2018-12-20T06:22:51.743Z,0
2018-12-20T06:23:51.758Z,0
2018-12-20T06:24:51.768Z,0
2018-12-20T06:25:51.785Z,0
2018-12-20T06:26:51.796Z,0
2018-12-20T06:27:51.671Z,0
2018-12-20T06:28:51.823Z,0
2018-12-20T06:30:06.503Z,0
2018-12-20T06:30:51.852Z,0
2018-12-20T06:32:51.888Z,0
2018-12-20T06:33:51.992Z,0
2018-12-20T06:34:51.922Z,0
2018-12-20T06:35:51.928Z,0
2018-12-20T06:36:51.950Z,0
2018-12-20T06:37:51.957Z,0
2018-12-20T06:39:06.631Z,0
2018-12-20T06:39:51.985Z,0
2018-12-20T06:40:51.995Z,0
2018-12-20T06:41:52.012Z,0
2018-12-20T06:42:52.054Z,0
2018-12-20T06:44:07.191Z,0
2018-12-20T06:44:52.053Z,0
2018-12-20T06:46:07.030Z,4
2018-12-20T06:46:52.098Z,4
2018-12-20T06:47:52.100Z,4
2018-12-20T06:49:51.879Z,4
2018-12-20T06:50:52.140Z,4
2018-12-20T06:51:52.150Z,8
2018-12-20T06:52:52.169Z,4
2018-12-20T06:54:52.197Z,8
2018-12-20T06:55:52.216Z,8
2018-12-20T06:56:52.354Z,8
2018-12-20T06:57:52.244Z,12
2018-12-20T06:59:06.917Z,12
2018-12-20T06:59:52.265Z,12
2018-12-20T07:01:06.941Z,16
2018-12-20T07:02:06.959Z,20
2018-12-20T07:02:52.311Z,20
2018-12-20T07:03:52.347Z,24
2018-12-20T07:04:52.338Z,28
2018-12-20T07:05:52.353Z,32
2018-12-20T07:06:52.375Z,36
2018-12-20T07:07:52.400Z,40
2018-12-20T07:08:52.395Z,40
2018-12-20T07:09:52.416Z,44
2018-12-20T07:10:52.423Z,44
2018-12-20T07:12:07.098Z,52
2018-12-20T07:13:07.113Z,56
2018-12-20T07:13:52.468Z,60
2018-12-20T07:14:52.513Z,64
2018-12-20T07:15:52.493Z,72
2018-12-20T07:17:07.177Z,76
2018-12-20T07:17:52.528Z,80
2018-12-20T07:18:52.538Z,84
2018-12-20T07:19:52.549Z,92
2018-12-20T07:20:52.565Z,96
2018-12-20T07:22:07.247Z,104
2018-12-20T07:22:52.593Z,112
2018-12-20T07:23:52.607Z,120
2018-12-20T07:24:52.628Z,136
2018-12-20T07:26:07.403Z,144
2018-12-20T07:26:52.649Z,156
2018-12-20T07:27:52.763Z,172
2018-12-20T07:28:52.685Z,184
2018-12-20T07:29:52.692Z,196
2018-12-20T07:32:52.746Z,248
2018-12-20T07:33:52.759Z,264
2018-12-20T07:34:55.127Z,288
2018-12-20T07:35:52.787Z,304
2018-12-20T07:36:52.864Z,324
2018-12-20T07:37:52.811Z,344
2018-12-20T07:38:52.822Z,368
2018-12-20T07:39:52.836Z,388
2018-12-20T07:40:52.951Z,408
2018-12-20T07:41:52.867Z,432
2018-12-20T07:42:52.880Z,452
2018-12-20T07:43:52.891Z,476
2018-12-20T07:44:52.907Z,492
2018-12-20T07:46:07.612Z,524
2018-12-20T07:46:52.944Z,540
2018-12-20T07:47:52.947Z,568
2018-12-20T07:49:07.630Z,600
2018-12-20T07:49:52.978Z,624
2018-12-20T07:50:52.991Z,656
2018-12-20T07:51:53.005Z,692
2018-12-20T07:52:53.023Z,720
2018-12-20T07:53:53.037Z,756
2018-12-20T07:54:53.048Z,788
2018-12-20T07:55:53.060Z,824
2018-12-20T07:56:53.179Z,872
2018-12-20T07:57:53.094Z,928
2018-12-20T07:58:53.106Z,988
2018-12-20T07:59:53.118Z,1052
2018-12-20T08:00:53.135Z,1132
2018-12-20T08:01:53.149Z,1208
2018-12-20T08:02:53.164Z,1276
2018-12-20T08:03:53.278Z,1348
2018-12-20T08:05:07.851Z,1428
2018-12-20T08:05:53.202Z,1480
2018-12-20T08:06:53.218Z,1560
2018-12-20T08:08:53.251Z,1732
2018-12-20T08:09:53.263Z,1812
2018-12-20T08:10:53.275Z,1896
2018-12-20T08:11:53.297Z,1972
2018-12-20T08:12:53.310Z,2052
2018-12-20T08:13:53.320Z,2144
2018-12-20T08:15:07.997Z,2236
2018-12-20T08:16:10.137Z,2308
2018-12-20T08:16:53.535Z,2356
2018-12-20T08:17:53.380Z,2436
2018-12-20T08:18:53.390Z,2512
2018-12-20T08:19:53.407Z,2580
2018-12-20T08:21:08.084Z,2656
2018-12-20T08:21:53.434Z,2712
2018-12-20T08:22:53.448Z,2772
2018-12-20T08:23:53.462Z,2820
2018-12-20T08:24:53.483Z,2868
2018-12-20T08:25:53.496Z,2920
2018-12-20T08:26:53.507Z,2952
2018-12-20T08:27:53.533Z,2984
2018-12-20T08:28:53.615Z,3068
2018-12-20T08:29:54.508Z,3152
2018-12-20T08:30:53.566Z,3268
2018-12-20T08:31:53.585Z,3392
2018-12-20T08:33:08.259Z,3520
2018-12-20T08:34:08.271Z,3540
2018-12-20T08:34:53.628Z,3608
2018-12-20T08:35:53.727Z,3780
2018-12-20T08:37:08.315Z,3984
2018-12-20T08:37:53.680Z,4040
2018-12-20T08:38:53.682Z,4072
2018-12-20T08:39:53.702Z,4224
2018-12-20T08:40:53.714Z,4264
2018-12-20T08:41:53.740Z,4324
2018-12-20T08:42:53.739Z,4404
2018-12-20T08:43:53.758Z,4516
2018-12-20T08:44:53.770Z,4604
2018-12-20T08:45:53.841Z,4632
2018-12-20T08:47:01.412Z,4664
2018-12-20T08:47:53.920Z,4684
2018-12-20T08:49:53.848Z,4700
2018-12-20T08:50:53.863Z,4680
2018-12-20T08:52:08.538Z,4624
2018-12-20T08:53:08.555Z,4564
2018-12-20T08:54:08.574Z,4520
2018-12-20T08:54:53.918Z,4484
2018-12-20T08:55:53.929Z,4408
2018-12-20T08:56:53.946Z,4340
2018-12-20T08:57:53.961Z,4292
2018-12-20T08:58:53.978Z,4288
2018-12-20T09:00:08.663Z,4292
2018-12-20T09:00:54.014Z,4320
2018-12-20T09:01:54.084Z,4392
2018-12-20T09:02:54.038Z,4448
2018-12-20T09:03:54.061Z,4448
2018-12-20T09:04:54.067Z,4372
2018-12-20T09:05:54.085Z,4280
2018-12-20T09:06:54.095Z,4320
2018-12-20T09:07:54.115Z,4328
2018-12-20T09:08:54.127Z,4292
2018-12-20T09:09:54.147Z,4284
2018-12-20T09:10:54.259Z,4296
2018-12-20T09:11:54.173Z,4236
2018-12-20T09:12:54.188Z,4220
2018-12-20T09:13:54.201Z,4232
2018-12-20T09:14:54.218Z,4244
2018-12-20T09:15:54.231Z,4256
2018-12-20T09:17:02.412Z,4268
2018-12-20T09:18:08.924Z,4260
2018-12-20T09:18:54.277Z,4260
2018-12-20T09:19:54.294Z,4240
2018-12-20T09:21:54.326Z,4276
2018-12-20T09:22:54.334Z,4236
2018-12-20T09:24:09.012Z,4272
2018-12-20T09:24:54.363Z,4320
2018-12-20T09:25:54.384Z,4280
2018-12-20T09:26:54.400Z,4316
2018-12-20T09:27:54.516Z,4356
2018-12-20T09:29:09.100Z,4344
2018-12-20T09:29:54.439Z,4372
2018-12-20T09:30:54.452Z,4388
2018-12-20T09:31:54.470Z,4404
2018-12-20T09:32:54.489Z,4372
2018-12-20T09:33:54.500Z,4348
2018-12-20T09:35:09.178Z,4304
2018-12-20T09:35:54.531Z,4256
2018-12-20T09:38:54.575Z,4128
2018-12-20T09:40:09.255Z,4096
2018-12-20T09:40:54.607Z,4108
2018-12-20T09:41:54.625Z,4068
2018-12-20T09:42:54.637Z,4020
2018-12-20T09:43:54.665Z,4024
2018-12-20T09:44:54.672Z,4036
2018-12-20T09:45:54.684Z,4064
2018-12-20T09:46:54.825Z,4072
2018-12-20T09:47:54.468Z,4080
2018-12-20T09:49:09.392Z,4076
2018-12-20T09:49:54.744Z,4052
2018-12-20T09:50:54.863Z,4012
2018-12-20T09:51:54.788Z,3988
2018-12-20T09:52:54.789Z,3996
2018-12-20T09:53:54.807Z,4000
2018-12-20T09:54:54.825Z,4020
2018-12-20T09:56:09.503Z,4084
2018-12-20T09:57:54.873Z,4112
2018-12-20T09:58:54.880Z,4084
2018-12-20T09:59:54.900Z,4076
2018-12-20T10:00:54.914Z,4040
2018-12-20T10:01:54.933Z,3984
2018-12-20T10:02:54.951Z,3944
2018-12-20T10:05:09.636Z,4008
2018-12-20T10:06:09.656Z,4032
2018-12-20T10:06:55.003Z,4068
2018-12-20T10:07:54.792Z,4060
2018-12-20T10:09:09.700Z,4088
2018-12-20T10:09:55.053Z,4124
2018-12-20T10:10:55.074Z,4160
2018-12-20T10:12:09.779Z,4168
2018-12-20T10:12:55.105Z,4152
2018-12-20T10:13:55.111Z,4152
2018-12-20T10:14:55.129Z,4152
2018-12-20T10:15:55.141Z,4184
2018-12-20T10:16:55.156Z,4200
2018-12-20T10:18:09.837Z,4216
2018-12-20T10:18:55.304Z,4232
2018-12-20T10:20:09.865Z,4264
2018-12-20T10:20:55.231Z,4320
2018-12-20T10:21:55.240Z,4348
2018-12-20T10:22:55.259Z,4364
2018-12-20T10:23:55.381Z,4364
2018-12-20T10:24:55.387Z,4396
2018-12-20T10:25:55.296Z,4420
2018-12-20T10:27:09.973Z,4488
2018-12-20T10:27:55.332Z,4544
2018-12-20T10:28:55.369Z,4560
2018-12-20T10:29:55.356Z,4544
2018-12-20T10:30:55.377Z,4504
2018-12-20T10:33:10.068Z,4460
2018-12-20T10:33:55.444Z,4404
2018-12-20T10:34:55.441Z,4340
2018-12-20T10:35:55.455Z,4360
2018-12-20T10:36:55.467Z,4384
2018-12-20T10:38:10.144Z,4476
2018-12-20T10:39:10.160Z,4556
2018-12-20T10:39:55.523Z,4600
2018-12-20T10:40:55.527Z,4632
2018-12-20T10:41:55.549Z,4640
2018-12-20T10:42:55.564Z,4684
2018-12-20T10:43:55.687Z,4712
2018-12-20T10:44:55.602Z,4688
2018-12-20T10:45:55.609Z,4648
2018-12-20T10:46:55.629Z,4596
2018-12-20T10:47:55.704Z,4528
2018-12-20T10:48:55.658Z,4500
2018-12-20T10:50:10.333Z,4444
2018-12-20T10:50:55.804Z,4400
2018-12-20T10:52:10.365Z,4328
2018-12-20T10:52:55.718Z,4288
2018-12-20T10:53:55.844Z,4244
2018-12-20T10:55:10.415Z,4188
2018-12-20T10:55:55.765Z,4152
2018-12-20T10:56:55.781Z,4108
2018-12-20T10:57:55.796Z,4096
2018-12-20T10:59:10.472Z,4112
2018-12-20T11:00:55.841Z,4116
2018-12-20T11:01:55.855Z,4104
2018-12-20T11:02:55.869Z,4096
2018-12-20T11:03:55.888Z,4084
2018-12-20T11:04:55.913Z,4080
2018-12-20T11:05:55.919Z,4076
2018-12-20T11:06:55.941Z,4056
2018-12-20T11:07:56.056Z,4036
2018-12-20T11:09:10.628Z,4032
2018-12-20T11:09:55.983Z,4024
2018-12-20T11:11:56.122Z,3988
2018-12-20T11:12:56.031Z,3972
2018-12-20T11:14:10.734Z,3968
2018-12-20T11:15:10.731Z,3956
2018-12-20T11:15:56.078Z,3944
2018-12-20T11:16:56.092Z,3928
2018-12-20T11:17:55.862Z,3916
2018-12-20T11:18:56.135Z,3908
2018-12-20T11:19:56.142Z,3896
2018-12-20T11:20:56.164Z,3884
2018-12-20T11:22:10.838Z,3860
2018-12-20T11:22:56.192Z,3836
2018-12-20T11:23:56.214Z,3804
2018-12-20T11:25:10.976Z,3756
2018-12-20T11:25:56.233Z,3732
2018-12-20T11:27:10.916Z,3704
2018-12-20T11:28:56.289Z,3676
2018-12-20T11:29:56.299Z,3668
2018-12-20T11:31:56.334Z,3672
2018-12-20T11:32:56.342Z,3664
2018-12-20T11:33:56.366Z,3660
2018-12-20T11:34:56.129Z,3636
2018-12-20T11:35:56.393Z,3612
2018-12-20T11:36:56.420Z,3600
2018-12-20T11:37:56.429Z,3584
2018-12-20T11:38:56.440Z,3560
2018-12-20T11:40:04.130Z,3544
2018-12-20T11:40:57.159Z,3532
2018-12-20T11:42:11.158Z,3508
2018-12-20T11:44:11.182Z,3472
2018-12-20T11:44:56.285Z,3448
2018-12-20T11:47:11.234Z,3384
2018-12-20T11:47:56.607Z,3364
2018-12-20T11:48:56.601Z,3328
2018-12-20T11:49:56.619Z,3300
2018-12-20T11:50:56.683Z,3276
2018-12-20T11:51:56.650Z,3248
2018-12-20T11:52:56.670Z,3216
2018-12-20T11:53:56.680Z,3192
2018-12-20T11:54:59.019Z,3180
2018-12-20T11:56:11.374Z,3176
2018-12-20T11:56:56.725Z,3184
2018-12-20T11:57:56.749Z,3192
2018-12-20T11:59:56.781Z,3208
2018-12-20T12:00:56.795Z,3224
2018-12-20T12:02:11.617Z,3252
2018-12-20T12:02:56.822Z,3272
2018-12-20T12:04:04.521Z,3300
2018-12-20T12:04:56.868Z,3316
2018-12-20T12:05:56.875Z,3332
2018-12-20T12:06:56.886Z,3340
2018-12-20T12:07:56.905Z,3340
2018-12-20T12:08:56.916Z,3320
2018-12-20T12:09:56.937Z,3288
2018-12-20T12:10:56.951Z,3264
2018-12-20T12:12:11.627Z,3228
2018-12-20T12:13:11.648Z,3192
2018-12-20T12:14:11.417Z,3152
2018-12-20T12:14:57.010Z,3132
2018-12-20T12:16:11.691Z,3108
2018-12-20T12:16:57.043Z,3092
2018-12-20T12:18:16.150Z,3048
2018-12-20T12:20:57.120Z,2988
2018-12-20T12:21:57.122Z,2984
2018-12-20T12:22:57.142Z,2988
2018-12-20T12:23:56.921Z,2980
2018-12-20T12:24:57.230Z,2976
2018-12-20T12:26:11.853Z,2960
2018-12-20T12:26:57.213Z,2948
2018-12-20T12:28:11.882Z,2932
2018-12-20T12:28:57.238Z,2912
2018-12-20T12:29:57.252Z,2892
2018-12-20T12:31:57.389Z,2864
2018-12-20T12:32:57.298Z,2852
2018-12-20T12:34:11.977Z,2856
2018-12-20T12:34:57.333Z,2852
2018-12-20T12:35:57.348Z,2872
2018-12-20T12:37:12.149Z,2888
2018-12-20T12:37:57.383Z,2892
2018-12-20T12:38:57.398Z,2916
2018-12-20T12:39:57.410Z,2896
2018-12-20T12:40:57.423Z,2896
2018-12-20T12:41:57.445Z,2908
2018-12-20T12:42:57.457Z,2932
2018-12-20T12:43:58.211Z,2960
2018-12-20T12:44:57.490Z,3012
2018-12-20T12:46:12.169Z,3024
2018-12-20T12:46:57.523Z,3012
2018-12-20T12:48:05.478Z,2996
2018-12-20T12:50:12.232Z,2964
2018-12-20T12:50:57.590Z,3020
2018-12-20T12:52:00.482Z,3040
2018-12-20T12:52:57.620Z,3108
2018-12-20T12:53:57.632Z,3160
2018-12-20T12:54:57.652Z,3108
2018-12-20T12:55:57.670Z,3036
2018-12-20T12:56:57.687Z,2964
2018-12-20T12:58:04.533Z,2948
2018-12-20T12:59:12.382Z,2932
2018-12-20T12:59:57.748Z,2976
2018-12-20T13:00:57.745Z,2992
2018-12-20T13:01:57.768Z,2944
2018-12-20T13:03:12.447Z,2968
2018-12-20T13:03:59.815Z,3052
2018-12-20T13:04:57.820Z,3112
2018-12-20T13:06:12.503Z,3160
2018-12-20T13:06:57.969Z,3160
2018-12-20T13:07:57.855Z,3140
2018-12-20T13:08:57.876Z,3108
2018-12-20T13:09:57.990Z,3124
2018-12-20T13:10:58.402Z,3124
2018-12-20T13:11:57.923Z,3104
2018-12-20T13:12:57.950Z,3084
2018-12-20T13:14:12.617Z,3076
2018-12-20T13:14:57.968Z,3068
2018-12-20T13:15:57.987Z,3032
2018-12-20T13:17:12.667Z,2984
2018-12-20T13:18:16.452Z,2920
2018-12-20T13:18:58.038Z,2872
2018-12-20T13:19:58.055Z,2792
2018-12-20T13:22:12.752Z,2768
2018-12-20T13:22:58.098Z,2760
2018-12-20T13:23:58.132Z,2756
2018-12-20T13:24:58.130Z,2744
2018-12-20T13:25:58.153Z,2724
2018-12-20T13:26:58.159Z,2688
2018-12-20T13:27:58.174Z,2652
2018-12-20T13:28:58.199Z,2628
2018-12-20T13:29:58.220Z,2616
2018-12-20T13:30:58.328Z,2612
2018-12-20T13:31:58.247Z,2600
2018-12-20T13:33:12.921Z,2524
2018-12-20T13:33:58.281Z,2496
2018-12-20T13:34:58.289Z,2424
2018-12-20T13:35:58.306Z,2324
2018-12-20T13:37:20.567Z,2244
2018-12-20T13:37:58.338Z,2212
2018-12-20T13:38:58.358Z,2120
2018-12-20T13:39:58.369Z,1988
2018-12-20T13:40:58.394Z,1884
2018-12-20T13:41:58.402Z,1784
2018-12-20T13:42:58.419Z,1664
2018-12-20T13:43:58.438Z,1532
2018-12-20T13:44:58.455Z,1388
2018-12-20T13:45:58.465Z,1232
2018-12-20T13:46:58.483Z,1192
2018-12-20T13:47:58.500Z,1176
2018-12-20T13:48:58.274Z,1176
2018-12-20T13:49:58.541Z,1160
2018-12-20T13:50:58.653Z,1120
2018-12-20T13:52:58.738Z,988
2018-12-20T13:53:58.594Z,932
2018-12-20T13:55:13.280Z,876
2018-12-20T13:55:58.660Z,844
2018-12-20T13:56:58.651Z,816
2018-12-20T13:57:58.672Z,796
2018-12-20T13:59:13.339Z,768
2018-12-20T13:59:58.693Z,748
2018-12-20T14:00:58.709Z,728
2018-12-20T14:01:58.721Z,704
2018-12-20T14:02:58.748Z,676
2018-12-20T14:03:59.639Z,660
2018-12-20T14:04:58.786Z,640
2018-12-20T14:05:58.785Z,620
2018-12-20T14:06:58.815Z,600
2018-12-20T14:08:20.759Z,576
2018-12-20T14:09:13.501Z,552
2018-12-20T14:09:58.845Z,532
2018-12-20T14:10:58.865Z,500
2018-12-20T14:11:58.879Z,472
2018-12-20T14:12:58.899Z,440
2018-12-20T14:13:58.915Z,416
2018-12-20T14:14:58.922Z,396
2018-12-20T14:15:58.942Z,376
2018-12-20T14:16:58.964Z,364
2018-12-20T14:17:58.971Z,352
2018-12-20T14:18:58.990Z,344
2018-12-20T14:20:13.663Z,328
2018-12-20T14:20:59.021Z,320
2018-12-20T14:21:59.041Z,308
2018-12-20T14:22:59.061Z,296
2018-12-20T14:23:59.063Z,288
2018-12-20T14:25:13.743Z,280
2018-12-20T14:27:59.264Z,248
2018-12-20T14:29:13.811Z,232
2018-12-20T14:29:59.220Z,220
2018-12-20T14:30:59.201Z,212
2018-12-20T14:32:13.860Z,196
2018-12-20T14:32:59.211Z,188
2018-12-20T14:33:59.222Z,180
2018-12-20T14:34:59.293Z,172
2018-12-20T14:35:59.252Z,168
2018-12-20T14:37:59.279Z,164
2018-12-20T14:39:59.313Z,160
2018-12-20T14:41:13.993Z,152
2018-12-20T14:41:59.341Z,144
2018-12-20T14:42:59.355Z,140
2018-12-20T14:43:59.373Z,132
2018-12-20T14:44:59.391Z,128
2018-12-20T14:45:59.403Z,120
2018-12-20T14:46:59.418Z,112
2018-12-20T14:47:59.443Z,104
2018-12-20T14:48:59.461Z,96
2018-12-20T14:50:14.130Z,88
2018-12-20T14:50:59.482Z,84